createdAt,value
2023-04-23T00:03:44.639Z,8.83
2023-04-23T00:11:05.129Z,8.66
2023-04-23T00:18:23.502Z,8.61
2023-04-23T00:25:41.870Z,8.57
2023-04-23T00:33:01.606Z,8.50
2023-04-23T00:40:20.761Z,8.41
2023-04-23T00:47:39.032Z,8.30
2023-04-23T00:54:58.806Z,8.29
2023-04-23T01:02:17.482Z,8.27
2023-04-23T01:09:36.166Z,8.21
2023-04-23T01:16:56.433Z,8.18
2023-04-23T01:24:16.458Z,8.06
2023-04-23T01:31:35.011Z,7.88
2023-04-23T01:38:53.803Z,7.69
2023-04-23T01:46:13.886Z,7.60
2023-04-23T01:53:32.059Z,7.56
2023-04-23T02:00:50.447Z,7.53
2023-04-23T02:08:10.793Z,7.40
2023-04-23T02:15:29.143Z,7.19
2023-04-23T02:22:48.547Z,7.18
2023-04-23T02:30:10.015Z,7.11
2023-04-23T02:37:28.601Z,7.10
2023-04-23T02:44:46.805Z,7.15
2023-04-23T02:52:06.772Z,7.14
2023-04-23T02:59:25.140Z,7.08
2023-04-23T03:06:43.660Z,7.04
2023-04-23T03:14:03.465Z,6.95
2023-04-23T03:21:21.719Z,6.84
2023-04-23T03:28:41.163Z,6.79
2023-04-23T03:36:00.969Z,6.71
2023-04-23T03:43:22.542Z,6.77
2023-04-23T03:50:52.799Z,6.85
2023-04-23T03:58:33.510Z,6.87
2023-04-23T04:05:52.134Z,6.99
2023-04-23T04:13:10.604Z,7.11
2023-04-23T04:20:30.473Z,7.17
2023-04-23T04:27:49.586Z,7.19
2023-04-23T04:35:09.186Z,7.46
2023-04-23T04:42:29.008Z,7.71
2023-04-23T04:49:47.710Z,7.86
2023-04-23T04:57:06.580Z,8.16
2023-04-23T05:04:26.472Z,8.53
2023-04-23T05:11:47.343Z,10.10
2023-04-23T05:19:05.695Z,11.86
2023-04-23T05:26:25.219Z,12.63
2023-04-23T05:33:49.950Z,12.81
2023-04-23T05:41:08.544Z,13.09
2023-04-23T05:48:28.203Z,13.82
2023-04-23T05:55:46.586Z,14.30
2023-04-23T06:03:05.160Z,14.82
2023-04-23T06:10:25.142Z,15.04
2023-04-23T06:17:43.486Z,15.55
2023-04-23T06:25:01.801Z,15.91
2023-04-23T06:32:22.528Z,16.62
2023-04-23T06:39:40.783Z,17.09
2023-04-23T06:46:59.044Z,17.57
2023-04-23T06:54:19.620Z,17.19
2023-04-23T07:01:37.865Z,18.14
2023-04-23T07:08:55.974Z,18.89
2023-04-23T07:16:15.767Z,19.23
2023-04-23T07:23:34.093Z,18.74
2023-04-23T07:30:52.294Z,18.99
2023-04-23T07:38:11.965Z,20.40
2023-04-23T07:45:30.115Z,19.98
2023-04-23T07:52:48.564Z,21.13
2023-04-23T08:00:11.523Z,21.88
2023-04-23T08:07:32.692Z,20.90
2023-04-23T08:14:51.532Z,20.48
2023-04-23T08:22:16.410Z,20.65
2023-04-23T08:29:34.747Z,20.88
2023-04-23T08:36:52.888Z,21.05
2023-04-23T08:44:18.790Z,22.11
2023-04-23T08:51:39.910Z,21.43
2023-04-23T08:58:58.155Z,21.32
2023-04-23T09:06:18.314Z,22.26
2023-04-23T09:13:37.247Z,22.53
2023-04-23T09:20:56.273Z,23.13
2023-04-23T09:28:16.403Z,23.36
2023-04-23T09:35:36.029Z,22.16
2023-04-23T09:42:55.228Z,21.82
2023-04-23T09:50:14.796Z,22.49
2023-04-23T09:57:37.673Z,23.26
2023-04-23T10:05:06.684Z,22.75
2023-04-23T10:12:50.201Z,21.86
2023-04-23T10:20:13.897Z,22.00
2023-04-23T10:27:51.323Z,21.97
2023-04-23T10:35:11.942Z,22.21
2023-04-23T10:42:30.127Z,21.16
2023-04-23T10:49:49.977Z,21.02
2023-04-23T10:57:08.522Z,21.06
2023-04-23T11:04:29.187Z,20.95
2023-04-23T11:11:49.576Z,21.34
2023-04-23T11:19:12.635Z,21.28
2023-04-23T11:26:32.168Z,21.81
2023-04-23T11:33:51.872Z,21.76
2023-04-23T11:41:12.274Z,22.32
2023-04-23T11:48:30.542Z,22.29
2023-04-23T11:55:52.200Z,22.14
2023-04-23T12:03:10.843Z,22.09
2023-04-23T12:10:29.222Z,21.84
2023-04-23T12:17:53.100Z,21.95
2023-04-23T12:25:13.746Z,21.91
2023-04-23T12:32:32.184Z,21.67
2023-04-23T12:39:53.166Z,21.42
2023-04-23T12:47:12.317Z,21.10
2023-04-23T12:54:32.402Z,21.34
2023-04-23T13:01:52.569Z,21.15
2023-04-23T13:09:11.651Z,21.21
2023-04-23T13:16:30.901Z,21.30
2023-04-23T13:23:51.819Z,21.49
2023-04-23T13:31:12.157Z,20.87
2023-04-23T13:38:31.178Z,20.17
2023-04-23T13:45:51.150Z,20.42
2023-04-23T13:53:10.561Z,20.41
2023-04-23T14:00:30.144Z,20.27
2023-04-23T14:07:49.838Z,20.45
2023-04-23T14:15:09.500Z,20.67
2023-04-23T14:22:28.520Z,20.45
2023-04-23T14:29:53.570Z,20.12
2023-04-23T14:37:12.682Z,20.20
2023-04-23T14:44:30.934Z,19.85
2023-04-23T14:51:54.287Z,19.71
2023-04-23T14:59:12.569Z,19.40
2023-04-23T15:06:32.318Z,19.14
2023-04-23T15:13:57.971Z,18.85
2023-04-23T15:21:16.331Z,18.54
2023-04-23T15:28:34.657Z,18.12
2023-04-23T15:35:58.107Z,18.07
2023-04-23T15:43:18.996Z,17.45
2023-04-23T15:50:38.590Z,17.27
2023-04-23T15:58:01.683Z,17.22
2023-04-23T16:05:20.924Z,17.13
2023-04-23T16:12:39.313Z,16.54
2023-04-23T16:19:59.310Z,16.06
2023-04-23T16:27:17.602Z,15.77
2023-04-23T16:34:36.565Z,15.80
2023-04-23T16:41:57.031Z,15.98
2023-04-23T16:49:15.652Z,15.94
2023-04-23T16:56:34.197Z,15.88
2023-04-23T17:03:54.763Z,15.82
2023-04-23T17:11:13.938Z,15.62
2023-04-23T17:18:32.730Z,15.52
2023-04-23T17:25:52.638Z,15.49
2023-04-23T17:33:11.448Z,15.65
2023-04-23T17:40:32.788Z,15.57
2023-04-23T17:47:52.673Z,15.26
2023-04-23T17:55:11.485Z,15.19
2023-04-23T18:02:30.316Z,15.25
2023-04-23T18:09:50.383Z,15.16
2023-04-23T18:17:09.190Z,15.18
2023-04-23T18:24:27.716Z,15.37
2023-04-23T18:31:47.860Z,15.30
2023-04-23T18:39:07.606Z,15.29
2023-04-23T18:46:27.776Z,15.51
2023-04-23T18:53:49.406Z,15.30
2023-04-23T19:01:08.052Z,15.22
2023-04-23T19:08:28.940Z,15.11
2023-04-23T19:15:50.774Z,15.12
2023-04-23T19:23:09.377Z,15.10
2023-04-23T19:30:28.179Z,15.16
2023-04-23T19:37:48.329Z,15.10
2023-04-23T19:45:08.070Z,15.23
2023-04-23T19:52:28.629Z,15.08
2023-04-23T19:59:48.535Z,14.66
2023-04-23T20:07:07.538Z,14.30
2023-04-23T20:14:26.004Z,14.16
2023-04-23T20:21:46.081Z,13.99
2023-04-23T20:29:04.873Z,14.10
2023-04-23T20:36:23.550Z,14.30
2023-04-23T20:43:44.603Z,14.22
2023-04-23T20:51:03.592Z,14.32
2023-04-23T20:58:21.906Z,14.12
2023-04-23T21:05:44.574Z,13.71
2023-04-23T21:13:03.392Z,13.24
2023-04-23T21:20:22.258Z,13.07
2023-04-23T21:27:46.009Z,13.02
2023-04-23T21:35:06.146Z,12.93
2023-04-23T21:42:24.430Z,12.90
2023-04-23T21:49:44.550Z,12.88
2023-04-23T21:57:03.837Z,12.95
2023-04-23T22:04:22.636Z,12.93
2023-04-23T22:11:48.911Z,12.97
2023-04-23T22:19:14.242Z,12.79
2023-04-23T22:26:34.320Z,12.75
2023-04-23T22:33:54.336Z,12.68
2023-04-23T22:41:12.674Z,12.57
2023-04-23T22:48:31.110Z,12.47
2023-04-23T22:55:51.652Z,12.43
2023-04-23T23:03:10.148Z,12.41
2023-04-23T23:10:28.855Z,12.22
2023-04-23T23:17:48.452Z,12.07
2023-04-23T23:25:07.968Z,11.96
2023-04-23T23:32:26.201Z,11.86
2023-04-23T23:39:45.848Z,11.70
2023-04-23T23:47:05.752Z,11.70
2023-04-23T23:54:24.116Z,11.81
